Airfield :
LOGIN :

Register | Disclaimer

   EN    FR    IT 

 










Legend :    VFR   Marginal VFR   IFR   Intensive IFR   Very Intensive IFR
Visi :
Ceiling :
>= 8 km
>= 3000ft
5 to 8 km
1000 to 3000 ft
1500m to 5 km
500 to 1000 ft
800 to 1500m
200 to 500 ft
< 800m
< 200 ft
Symbols :   Thunderstorms  Fog  Heavy snow  Heavy precipitations  Wind > 20 kt
SIGMETs :     Misc.  Thunderstorms  Icing  Turbulence  Mountain Waves  Volcanic Ashes







- Airport Elevation : 93 ft
- IATA code : HDF


EDAH - Heringsdorf

CURRENT METAR :
  • 191150Z 27013KT 9999 BKN038 22/12 Q1019

EXPIRED METARs :
  • 191120Z 27012KT 240V320 9999 BKN045 22/12 Q1019
  • 191050Z 27013KT 250V310 9999 BKN049 22/11 Q1019
  • 191020Z 26013KT 9999 BKN044 21/13 Q1019
  • 190950Z 25015KT 9999 BKN046 21/12 Q1019
  • 190920Z 25011KT CAVOK 22/12 Q1019

TAF TAF EDAH
Valid from the 19 at 12:00 until the 19 at 21:00 UTC


191100Z 1912/1921 25010KT 9999 BKN045
PROB30
TEMPO 1912/1915 26015G25KT
No reported NOTAMs for that airfield.



MET'MAP, your aeronautical weather chart ! - Copyright ORBIFLY December 2007 - Disclaimer

ORBIFLY MET'MAP TEAM :

Programming & Development : Alexandra Zaïnal
Concept & Development : Baudouin d'Aumeries
Co-Development & Prog : Marc-Olivier Méhu
Technical & hardware support : Manuel Goepfert

Contact : metmap@orbifly.com




SOURCES & CREDITS :

   NOAA